Wetterdaten: aktuell Donnerstag, 16.09.2021 19:50
Datum Zeit Temp. A. Feuchte A. Luftdruck Regen Wind Richtung Richtung Taupunkt Windchill Windben Empfang
16.09.2021 19:50 17,9 C 93 % 1014,3 hPa 0,0 l/m 2,8 km/h (1 Bft) SW 229 16,8 C 17,9 C 8,0 km/h (2 Bft) 100 %
16.09.2021 19:48 17,9 C 93 % 1014,4 hPa 0,2 l/m 4,3 km/h (1 Bft) SW 218 16,8 C 17,9 C 9,7 km/h (2 Bft) 100 %
16.09.2021 19:46 17,9 C 93 % 1014,3 hPa 0,0 l/m 3,3 km/h (1 Bft) SW 221 16,8 C 17,9 C 6,4 km/h (2 Bft) 100 %
16.09.2021 19:44 17,9 C 93 % 1014,4 hPa 0,0 l/m 4,4 km/h (1 Bft) W-SW 237 16,8 C 17,9 C 6,4 km/h (2 Bft) 100 %
16.09.2021 19:42 17,9 C 93 % 1014,4 hPa 0,2 l/m 5,0 km/h (1 Bft) SW 224 16,8 C 17,9 C 8,0 km/h (2 Bft) 100 %
16.09.2021 19:40 18,0 C 93 % 1014,3 hPa 0,0 l/m 3,2 km/h (1 Bft) SW 228 16,8 C 18,0 C 6,4 km/h (2 Bft) 100 %
16.09.2021 19:38 18,0 C 93 % 1014,3 hPa 0,2 l/m 6,6 km/h (2 Bft) SW 223 16,8 C 17,9 C 9,7 km/h (2 Bft) 100 %
16.09.2021 19:36 18,1 C 93 % 1014,3 hPa 0,0 l/m 3,5 km/h (1 Bft) W-SW 243 16,9 C 18,1 C 6,4 km/h (2 Bft) 100 %
16.09.2021 19:34 18,1 C 93 % 1014,4 hPa 0,2 l/m 3,2 km/h (1 Bft) W-SW 257 16,9 C 18,1 C 4,8 km/h (1 Bft) 100 %
16.09.2021 19:32 18,1 C 93 % 1014,4 hPa 0,0 l/m 3,1 km/h (1 Bft) SW 227 16,9 C 18,1 C 4,8 km/h (1 Bft) 100 %
16.09.2021 19:30 18,1 C 93 % 1014,4 hPa 0,2 l/m 3,4 km/h (1 Bft) W-SW 239 16,9 C 18,1 C 8,0 km/h (2 Bft) 100 %
16.09.2021 19:28 18,1 C 92 % 1014,3 hPa 0,0 l/m 3,0 km/h (1 Bft) SW 233 16,8 C 18,1 C 4,8 km/h (1 Bft) 100 %
16.09.2021 19:26 18,1 C 92 % 1014,3 hPa 0,0 l/m 3,9 km/h (1 Bft) SW 219 16,8 C 18,1 C 8,0 km/h (2 Bft) 100 %
16.09.2021 19:24 18,1 C 92 % 1014,2 hPa 0,0 l/m 4,1 km/h (1 Bft) S-SW 204 16,8 C 18,1 C 6,4 km/h (2 Bft) 100 %
16.09.2021 19:22 18,2 C 92 % 1014,3 hPa 0,0 l/m 1,6 km/h (1 Bft) SW 231 16,9 C 18,2 C 3,2 km/h (1 Bft) 100 %
16.09.2021 19:20 18,2 C 92 % 1014,3 hPa 0,0 l/m 0,0 km/h (0 Bft) SW 229 16,9 C 18,2 C 1,6 km/h (1 Bft) 97 %
16.09.2021 19:18 18,2 C 92 % 1014,3 hPa 0,2 l/m 0,1 km/h (0 Bft) SW 229 16,9 C 18,2 C 1,6 km/h (1 Bft) 100 %
16.09.2021 19:16 18,2 C 92 % 1014,3 hPa 0,0 l/m 0,0 km/h (0 Bft) SW 229 16,9 C 18,2 C 0,0 km/h (0 Bft) 100 %
16.09.2021 19:14 18,2 C 92 % 1014,2 hPa 0,0 l/m 0,0 km/h (0 Bft) SW 229 16,9 C 18,2 C 0,0 km/h (0 Bft) 100 %
16.09.2021 19:12 18,3 C 92 % 1014,2 hPa 0,0 l/m 0,0 km/h (0 Bft) SW 229 17,0 C 18,3 C 1,6 km/h (1 Bft) 98 %
16.09.2021 19:10 18,3 C 91 % 1014,3 hPa 0,0 l/m 0,2 km/h (0 Bft) SW 229 16,8 C 18,3 C 1,6 km/h (1 Bft) 99 %
16.09.2021 19:08 18,3 C 91 % 1014,3 hPa 0,0 l/m 0,0 km/h (0 Bft) W-SW 237 16,8 C 18,3 C 1,6 km/h (1 Bft) 100 %
16.09.2021 19:06 18,4 C 91 % 1014,3 hPa 0,0 l/m 0,0 km/h (0 Bft) W-SW 237 16,9 C 18,4 C 0,0 km/h (0 Bft) 100 %
16.09.2021 19:04 18,4 C 91 % 1014,3 hPa 0,0 l/m 0,0 km/h (0 Bft) W-SW 237 16,9 C 18,4 C 0,0 km/h (0 Bft) 100 %
16.09.2021 19:02 18,4 C 91 % 1014,3 hPa 0,0 l/m 0,0 km/h (0 Bft) W-SW 237 16,9 C 18,4 C 0,0 km/h (0 Bft) 100 %
16.09.2021 19:00 18,5 C 91 % 1014,3 hPa 0,0 l/m 0,1 km/h (0 Bft) W-SW 237 17,0 C 18,5 C 1,6 km/h (1 Bft) 100 %
16.09.2021 18:58 18,6 C 90 % 1014,3 hPa 0,0 l/m 0,0 km/h (0 Bft) W-SW 237 16,9 C 18,6 C 0,0 km/h (0 Bft) 100 %
16.09.2021 18:56 18,6 C 90 % 1014,3 hPa 0,0 l/m 0,1 km/h (0 Bft) W-SW 237 16,9 C 18,6 C 1,6 km/h (1 Bft) 100 %
16.09.2021 18:54 18,7 C 90 % 1014,3 hPa 0,0 l/m 1,9 km/h (1 Bft) W-SW 237 17,0 C 18,7 C 3,2 km/h (1 Bft) 100 %
16.09.2021 18:52 18,7 C 89 % 1014,3 hPa 0,0 l/m 0,6 km/h (0 Bft) W-SW 246 16,8 C 18,7 C 3,2 km/h (1 Bft) 100 %
16.09.2021 18:50 18,8 C 89 % 1014,3 hPa 0,0 l/m 0,9 km/h (0 Bft) W-SW 252 16,9 C 18,8 C 3,2 km/h (1 Bft) 100 %
_ Min-Zeit 06:52 14:34 16:06 - 03:58 - - 06:44 06:52 03:58 17:56
Minimum _ 16,3 C 73 % 1013,6 hPa - 0,0 km/h (0 Bft) - - 15,4 C 16,3 C 0,0 km/h (0 Bft) 92 %
_ Max-Zeit 15:22 07:44 02:46 01:16 16:02 - - 12:58 14:32 16:00 00:00
Maximum _ 22,8 C 96 % 1016,3 hPa 0,2 l/m 16,1 km/h
NW (3 Bft)
- - 18,3 C 22,6 C 22,5 km/h
NW (4 Bft)
100 %
Durchschnitt _ 19,2 C 87 % 1015,2 hPa #4,4 l/m 4,7 km/h (1 Bft) NW - 16,9 C 19,0 C 7,3 km/h (2 Bft) 100 %